sensor_id;sensor_type;location;lat;lon;timestamp;pressure;altitude;pressure_sealevel;temperature;humidity
12666;BME280;58531;59.050;17.416;2023-04-26T00:01:58;99438.31;;;5.12;100.00
12666;BME280;58531;59.050;17.416;2023-04-26T00:04:25;99441.94;;;5.05;100.00
12666;BME280;58531;59.050;17.416;2023-04-26T00:06:53;99446.38;;;5.08;100.00
12666;BME280;58531;59.050;17.416;2023-04-26T00:09:22;99438.31;;;5.12;100.00
12666;BME280;58531;59.050;17.416;2023-04-26T00:11:49;99441.41;;;5.10;100.00
12666;BME280;58531;59.050;17.416;2023-04-26T00:14:16;99435.47;;;5.06;100.00
12666;BME280;58531;59.050;17.416;2023-04-26T00:16:42;99434.31;;;5.07;100.00
12666;BME280;58531;59.050;17.416;2023-04-26T00:19:09;99436.97;;;5.07;100.00
12666;BME280;58531;59.050;17.416;2023-04-26T00:21:37;99436.84;;;5.11;100.00
12666;BME280;58531;59.050;17.416;2023-04-26T00:24:04;99443.31;;;5.10;100.00
12666;BME280;58531;59.050;17.416;2023-04-26T00:26:32;99440.78;;;5.06;100.00
12666;BME280;58531;59.050;17.416;2023-04-26T00:28:59;99443.63;;;4.99;100.00
12666;BME280;58531;59.050;17.416;2023-04-26T00:31:27;99444.78;;;4.98;100.00
12666;BME280;58531;59.050;17.416;2023-04-26T00:33:54;99440.97;;;4.99;100.00
12666;BME280;58531;59.050;17.416;2023-04-26T00:36:20;99443.22;;;5.01;100.00
12666;BME280;58531;59.050;17.416;2023-04-26T00:38:47;99444.78;;;4.98;100.00
12666;BME280;58531;59.050;17.416;2023-04-26T00:41:14;99447.97;;;4.93;100.00
12666;BME280;58531;59.050;17.416;2023-04-26T00:43:43;99443.22;;;4.88;100.00
12666;BME280;58531;59.050;17.416;2023-04-26T00:46:10;99454.09;;;4.90;100.00
12666;BME280;58531;59.050;17.416;2023-04-26T00:48:37;99447.25;;;4.93;100.00
12666;BME280;58531;59.050;17.416;2023-04-26T00:51:04;99446.50;;;4.92;100.00
12666;BME280;58531;59.050;17.416;2023-04-26T00:53:32;99444.28;;;4.91;100.00
12666;BME280;58531;59.050;17.416;2023-04-26T00:56:00;99446.69;;;4.85;100.00
12666;BME280;58531;59.050;17.416;2023-04-26T00:58:28;99443.66;;;4.74;100.00
12666;BME280;58531;59.050;17.416;2023-04-26T01:00:56;99445.22;;;4.72;100.00
12666;BME280;58531;59.050;17.416;2023-04-26T01:03:23;99451.78;;;4.67;100.00
12666;BME280;58531;59.050;17.416;2023-04-26T01:05:51;99449.34;;;4.61;100.00
12666;BME280;58531;59.050;17.416;2023-04-26T01:08:18;99445.44;;;4.53;100.00
12666;BME280;58531;59.050;17.416;2023-04-26T01:10:46;99439.81;;;4.38;100.00
12666;BME280;58531;59.050;17.416;2023-04-26T01:13:13;99442.44;;;4.26;100.00
12666;BME280;58531;59.050;17.416;2023-04-26T01:15:42;99439.66;;;4.17;100.00
12666;BME280;58531;59.050;17.416;2023-04-26T01:18:11;99447.28;;;4.15;100.00
12666;BME280;58531;59.050;17.416;2023-04-26T01:20:38;99440.91;;;4.12;100.00
12666;BME280;58531;59.050;17.416;2023-04-26T01:23:07;99445.03;;;4.13;100.00
12666;BME280;58531;59.050;17.416;2023-04-26T01:25:34;99439.34;;;4.15;100.00
12666;BME280;58531;59.050;17.416;2023-04-26T01:28:01;99444.53;;;4.18;100.00
12666;BME280;58531;59.050;17.416;2023-04-26T01:30:29;99438.84;;;4.20;100.00
12666;BME280;58531;59.050;17.416;2023-04-26T01:32:55;99438.50;;;4.18;100.00
12666;BME280;58531;59.050;17.416;2023-04-26T01:35:22;99440.50;;;4.14;100.00
12666;BME280;58531;59.050;17.416;2023-04-26T01:37:49;99439.03;;;4.13;100.00
12666;BME280;58531;59.050;17.416;2023-04-26T01:40:17;99447.47;;;4.08;100.00
12666;BME280;58531;59.050;17.416;2023-04-26T01:42:44;99452.09;;;4.04;100.00
12666;BME280;58531;59.050;17.416;2023-04-26T01:45:11;99452.09;;;4.04;100.00
12666;BME280;58531;59.050;17.416;2023-04-26T01:47:38;99447.47;;;4.08;100.00
12666;BME280;58531;59.050;17.416;2023-04-26T01:50:06;99447.91;;;4.06;100.00
12666;BME280;58531;59.050;17.416;2023-04-26T01:52:33;99444.81;;;4.08;100.00
12666;BME280;58531;59.050;17.416;2023-04-26T01:55:00;99442.00;;;4.15;100.00
12666;BME280;58531;59.050;17.416;2023-04-26T01:57:28;99444.94;;;4.17;100.00
12666;BME280;58531;59.050;17.416;2023-04-26T01:59:55;99440.00;;;4.19;100.00
12666;BME280;58531;59.050;17.416;2023-04-26T02:02:23;99442.72;;;4.15;100.00
12666;BME280;58531;59.050;17.416;2023-04-26T02:04:50;99441.53;;;4.04;100.00
12666;BME280;58531;59.050;17.416;2023-04-26T02:07:17;99439.69;;;3.88;100.00
12666;BME280;58531;59.050;17.416;2023-04-26T02:09:44;99449.72;;;3.81;100.00
12666;BME280;58531;59.050;17.416;2023-04-26T02:12:11;99446.00;;;3.78;100.00
12666;BME280;58531;59.050;17.416;2023-04-26T02:14:39;99447.47;;;3.79;100.00
12666;BME280;58531;59.050;17.416;2023-04-26T02:17:06;99454.13;;;3.84;100.00
12666;BME280;58531;59.050;17.416;2023-04-26T02:19:35;99444.22;;;3.88;100.00
12666;BME280;58531;59.050;17.416;2023-04-26T02:22:04;99456.72;;;4.00;100.00
12666;BME280;58531;59.050;17.416;2023-04-26T02:24:31;99456.22;;;4.05;100.00
12666;BME280;58531;59.050;17.416;2023-04-26T02:26:57;99453.19;;;4.06;100.00
12666;BME280;58531;59.050;17.416;2023-04-26T02:29:28;99454.22;;;4.09;100.00
12666;BME280;58531;59.050;17.416;2023-04-26T02:31:56;99456.75;;;4.12;100.00
12666;BME280;58531;59.050;17.416;2023-04-26T02:34:23;99452.63;;;4.11;100.00
12666;BME280;58531;59.050;17.416;2023-04-26T02:36:50;99455.28;;;4.11;100.00
12666;BME280;58531;59.050;17.416;2023-04-26T02:39:17;99451.16;;;4.10;100.00
12666;BME280;58531;59.050;17.416;2023-04-26T02:41:44;99443.22;;;4.10;100.00
12666;BME280;58531;59.050;17.416;2023-04-26T02:44:10;99444.31;;;4.13;100.00
12666;BME280;58531;59.050;17.416;2023-04-26T02:46:37;99452.56;;;4.15;100.00
12666;BME280;58531;59.050;17.416;2023-04-26T02:49:06;99438.91;;;4.16;100.00
12666;BME280;58531;59.050;17.416;2023-04-26T02:51:32;99438.19;;;4.16;100.00
12666;BME280;58531;59.050;17.416;2023-04-26T02:53:59;99437.34;;;4.19;100.00
12666;BME280;58531;59.050;17.416;2023-04-26T02:56:27;99438.19;;;4.16;100.00
12666;BME280;58531;59.050;17.416;2023-04-26T02:58:54;99444.53;;;4.18;100.00
12666;BME280;58531;59.050;17.416;2023-04-26T03:01:21;99444.13;;;4.20;100.00
12666;BME280;58531;59.050;17.416;2023-04-26T03:03:48;99446.13;;;4.16;100.00
12666;BME280;58531;59.050;17.416;2023-04-26T03:06:16;99443.38;;;4.19;100.00
12666;BME280;58531;59.050;17.416;2023-04-26T03:08:43;99444.94;;;4.17;100.00
12666;BME280;58531;59.050;17.416;2023-04-26T03:11:10;99446.44;;;4.18;100.00
12666;BME280;58531;59.050;17.416;2023-04-26T03:13:37;99439.66;;;4.17;100.00
12666;BME280;58531;59.050;17.416;2023-04-26T03:16:04;99440.41;;;4.17;100.00
12666;BME280;58531;59.050;17.416;2023-04-26T03:18:31;99438.50;;;4.18;100.00
12666;BME280;58531;59.050;17.416;2023-04-26T03:20:58;99437.44;;;4.15;100.00
12666;BME280;58531;59.050;17.416;2023-04-26T03:23:26;99439.66;;;4.17;100.00
12666;BME280;58531;59.050;17.416;2023-04-26T03:25:53;99436.72;;;4.15;100.00
12666;BME280;58531;59.050;17.416;2023-04-26T03:28:20;99437.44;;;4.15;100.00
12666;BME280;58531;59.050;17.416;2023-04-26T03:30:47;99440.31;;;4.21;100.00
12666;BME280;58531;59.050;17.416;2023-04-26T03:33:14;99439.69;;;4.29;100.00
12666;BME280;58531;59.050;17.416;2023-04-26T03:35:42;99440.84;;;4.28;100.00
12666;BME280;58531;59.050;17.416;2023-04-26T03:38:09;99448.47;;;4.39;100.00
12666;BME280;58531;59.050;17.416;2023-04-26T03:40:37;99455.56;;;4.42;100.00
12666;BME280;58531;59.050;17.416;2023-04-26T03:43:04;99455.03;;;4.47;100.00
12666;BME280;58531;59.050;17.416;2023-04-26T03:45:31;99454.53;;;4.52;100.00
12666;BME280;58531;59.050;17.416;2023-04-26T03:47:58;99460.44;;;4.56;100.00
12666;BME280;58531;59.050;17.416;2023-04-26T03:50:24;99461.41;;;4.62;100.00
12666;BME280;58531;59.050;17.416;2023-04-26T03:52:51;99465.22;;;4.73;100.00
12666;BME280;58531;59.050;17.416;2023-04-26T03:55:18;99461.09;;;4.84;100.00
12666;BME280;58531;59.050;17.416;2023-04-26T03:57:47;99468.19;;;4.87;100.00
12666;BME280;58531;59.050;17.416;2023-04-26T04:00:14;99468.91;;;5.00;100.00
12666;BME280;58531;59.050;17.416;2023-04-26T04:02:41;99471.88;;;5.02;100.00
12666;BME280;58531;59.050;17.416;2023-04-26T04:05:08;99479.28;;;5.07;100.00
12666;BME280;58531;59.050;17.416;2023-04-26T04:07:35;99477.41;;;5.08;100.00
12666;BME280;58531;59.050;17.416;2023-04-26T04:10:02;99478.56;;;5.07;100.00
12666;BME280;58531;59.050;17.416;2023-04-26T04:12:29;99470.81;;;5.12;100.00
12666;BME280;58531;59.050;17.416;2023-04-26T04:14:58;99474.94;;;5.13;100.00
12666;BME280;58531;59.050;17.416;2023-04-26T04:17:24;99465.00;;;5.17;100.00
12666;BME280;58531;59.050;17.416;2023-04-26T04:19:51;99475.16;;;5.19;100.00
12666;BME280;58531;59.050;17.416;2023-04-26T04:22:18;99473.03;;;5.26;100.00
12666;BME280;58531;59.050;17.416;2023-04-26T04:24:45;99473.09;;;5.48;100.00
12666;BME280;58531;59.050;17.416;2023-04-26T04:27:12;99468.94;;;5.59;100.00
12666;BME280;58531;59.050;17.416;2023-04-26T04:29:39;99474.06;;;5.75;100.00
12666;BME280;58531;59.050;17.416;2023-04-26T04:32:08;99478.06;;;5.92;100.00
12666;BME280;58531;59.050;17.416;2023-04-26T04:34:35;99481.28;;;6.08;100.00
12666;BME280;58531;59.050;17.416;2023-04-26T04:37:02;99479.91;;;6.04;100.00
12666;BME280;58531;59.050;17.416;2023-04-26T04:39:29;99482.88;;;6.06;100.00
12666;BME280;58531;59.050;17.416;2023-04-26T04:41:56;99482.63;;;6.13;100.00
12666;BME280;58531;59.050;17.416;2023-04-26T04:44:24;99485.59;;;6.15;100.00
12666;BME280;58531;59.050;17.416;2023-04-26T04:46:52;99489.28;;;6.17;100.00
12666;BME280;58531;59.050;17.416;2023-04-26T04:49:20;99491.38;;;6.01;100.00
12666;BME280;58531;59.050;17.416;2023-04-26T04:51:49;99488.78;;;6.10;100.00
12666;BME280;58531;59.050;17.416;2023-04-26T04:54:17;99493.22;;;6.34;100.00
12666;BME280;58531;59.050;17.416;2023-04-26T04:56:44;99498.69;;;6.40;100.00
12666;BME280;58531;59.050;17.416;2023-04-26T04:59:11;99496.31;;;6.33;100.00
12666;BME280;58531;59.050;17.416;2023-04-26T05:01:38;99501.88;;;6.04;100.00
12666;BME280;58531;59.050;17.416;2023-04-26T05:04:05;99494.22;;;5.85;100.00
12666;BME280;58531;59.050;17.416;2023-04-26T05:06:33;99496.22;;;5.81;100.00
12666;BME280;58531;59.050;17.416;2023-04-26T05:09:00;99499.31;;;5.67;100.00
12666;BME280;58531;59.050;17.416;2023-04-26T05:11:29;99499.97;;;5.46;100.00
12666;BME280;58531;59.050;17.416;2023-04-26T05:13:56;99489.97;;;5.29;100.00
12666;BME280;58531;59.050;17.416;2023-04-26T05:16:23;99497.81;;;5.20;100.00
12666;BME280;58531;59.050;17.416;2023-04-26T05:18:50;99503.53;;;5.06;100.00
12666;BME280;58531;59.050;17.416;2023-04-26T05:21:17;99500.56;;;4.91;100.00
12666;BME280;58531;59.050;17.416;2023-04-26T05:23:45;99502.91;;;5.02;100.00
12666;BME280;58531;59.050;17.416;2023-04-26T05:26:13;99503.53;;;5.06;100.00
12666;BME280;58531;59.050;17.416;2023-04-26T05:28:40;99500.03;;;4.96;100.00
12666;BME280;58531;59.050;17.416;2023-04-26T05:31:08;99506.06;;;4.84;100.00
12666;BME280;58531;59.050;17.416;2023-04-26T05:33:35;99494.09;;;4.67;100.00
12666;BME280;58531;59.050;17.416;2023-04-26T05:36:02;99501.78;;;4.62;100.00
12666;BME280;58531;59.050;17.416;2023-04-26T05:38:29;99501.59;;;4.57;100.00
12666;BME280;58531;59.050;17.416;2023-04-26T05:40:57;99510.88;;;4.49;100.00
12666;BME280;58531;59.050;17.416;2023-04-26T05:43:24;99511.06;;;4.42;100.00
12666;BME280;58531;59.050;17.416;2023-04-26T05:45:52;99514.13;;;4.28;100.00
12666;BME280;58531;59.050;17.416;2023-04-26T05:48:19;99519.47;;;4.24;100.00
12666;BME280;58531;59.050;17.416;2023-04-26T05:50:47;99515.03;;;4.21;100.00
12666;BME280;58531;59.050;17.416;2023-04-26T05:53:14;99524.75;;;4.24;100.00
12666;BME280;58531;59.050;17.416;2023-04-26T05:55:40;99522.25;;;4.33;100.00
12666;BME280;58531;59.050;17.416;2023-04-26T05:58:09;99524.19;;;4.45;100.00
12666;BME280;58531;59.050;17.416;2023-04-26T06:00:36;99531.97;;;4.64;100.00
12666;BME280;58531;59.050;17.416;2023-04-26T06:03:04;99527.97;;;4.72;100.00
12666;BME280;58531;59.050;17.416;2023-04-26T06:05:31;99526.16;;;4.82;100.00
12666;BME280;58531;59.050;17.416;2023-04-26T06:07:58;99525.00;;;4.95;100.00
12666;BME280;58531;59.050;17.416;2023-04-26T06:10:26;99525.22;;;4.88;100.00
12666;BME280;58531;59.050;17.416;2023-04-26T06:12:53;99529.56;;;4.95;100.00
12666;BME280;58531;59.050;17.416;2023-04-26T06:15:21;99524.72;;;5.06;100.00
12666;BME280;58531;59.050;17.416;2023-04-26T06:17:47;99535.41;;;5.27;100.00
12666;BME280;58531;59.050;17.416;2023-04-26T06:20:14;99527.00;;;5.41;100.00
12666;BME280;58531;59.050;17.416;2023-04-26T06:22:41;99525.03;;;5.67;100.00
12666;BME280;58531;59.050;17.416;2023-04-26T06:25:08;99529.69;;;5.87;99.72
12666;BME280;58531;59.050;17.416;2023-04-26T06:27:35;99530.50;;;5.97;99.60
12666;BME280;58531;59.050;17.416;2023-04-26T06:30:04;99530.50;;;6.31;99.64
12666;BME280;58531;59.050;17.416;2023-04-26T06:32:33;99542.78;;;6.68;97.53
12666;BME280;58531;59.050;17.416;2023-04-26T06:35:00;99543.16;;;6.79;93.03
12666;BME280;58531;59.050;17.416;2023-04-26T06:37:27;99536.53;;;7.13;91.50
12666;BME280;58531;59.050;17.416;2023-04-26T06:39:54;99542.84;;;7.55;86.87
12666;BME280;58531;59.050;17.416;2023-04-26T06:42:21;99543.03;;;9.19;83.34
12666;BME280;58531;59.050;17.416;2023-04-26T06:44:48;99545.88;;;10.32;76.29
12666;BME280;58531;59.050;17.416;2023-04-26T06:47:14;99544.50;;;9.75;73.87
12666;BME280;58531;59.050;17.416;2023-04-26T06:49:43;99539.25;;;8.33;78.86
12666;BME280;58531;59.050;17.416;2023-04-26T06:52:10;99554.66;;;7.54;83.97
12666;BME280;58531;59.050;17.416;2023-04-26T06:54:36;99557.47;;;7.11;88.22
12666;BME280;58531;59.050;17.416;2023-04-26T06:57:03;99553.16;;;6.75;86.29
12666;BME280;58531;59.050;17.416;2023-04-26T06:59:30;99551.63;;;6.65;86.16
12666;BME280;58531;59.050;17.416;2023-04-26T07:01:57;99554.72;;;6.94;87.51
12666;BME280;58531;59.050;17.416;2023-04-26T07:04:25;99563.34;;;7.06;85.14
12666;BME280;58531;59.050;17.416;2023-04-26T07:06:53;99561.75;;;7.09;86.49
12666;BME280;58531;59.050;17.416;2023-04-26T07:09:21;99558.06;;;6.85;87.12
12666;BME280;58531;59.050;17.416;2023-04-26T07:11:48;99563.88;;;6.71;87.62
12666;BME280;58531;59.050;17.416;2023-04-26T07:14:15;99560.50;;;6.49;88.78
12666;BME280;58531;59.050;17.416;2023-04-26T07:16:42;99564.63;;;6.72;89.56
12666;BME280;58531;59.050;17.416;2023-04-26T07:19:09;99568.38;;;7.13;90.78
12666;BME280;58531;59.050;17.416;2023-04-26T07:21:36;99562.69;;;7.72;81.66
12666;BME280;58531;59.050;17.416;2023-04-26T07:24:05;99568.50;;;8.24;85.58
12666;BME280;58531;59.050;17.416;2023-04-26T07:26:34;99561.38;;;8.66;81.40
12666;BME280;58531;59.050;17.416;2023-04-26T07:29:01;99573.38;;;8.44;82.66
12666;BME280;58531;59.050;17.416;2023-04-26T07:31:29;99578.13;;;8.22;80.40
12666;BME280;58531;59.050;17.416;2023-04-26T07:33:56;99581.13;;;7.76;82.47
12666;BME280;58531;59.050;17.416;2023-04-26T07:36:23;99589.97;;;7.64;84.25
12666;BME280;58531;59.050;17.416;2023-04-26T07:38:50;99588.75;;;7.16;84.06
12666;BME280;58531;59.050;17.416;2023-04-26T07:41:19;99599.81;;;6.85;87.74
12666;BME280;58531;59.050;17.416;2023-04-26T07:43:45;99596.09;;;6.39;86.68
12666;BME280;58531;59.050;17.416;2023-04-26T07:46:12;99598.09;;;6.14;88.36
12666;BME280;58531;59.050;17.416;2023-04-26T07:48:39;99605.09;;;6.08;86.70
12666;BME280;58531;59.050;17.416;2023-04-26T07:51:06;99599.44;;;6.18;85.75
12666;BME280;58531;59.050;17.416;2023-04-26T07:53:33;99607.94;;;6.47;86.67
12666;BME280;58531;59.050;17.416;2023-04-26T07:56:03;99608.31;;;6.80;83.96
12666;BME280;58531;59.050;17.416;2023-04-26T07:58:32;99609.38;;;7.12;83.01
12666;BME280;58531;59.050;17.416;2023-04-26T08:00:59;99608.72;;;7.69;79.71
12666;BME280;58531;59.050;17.416;2023-04-26T08:03:26;99608.31;;;7.89;79.67
12666;BME280;58531;59.050;17.416;2023-04-26T08:05:53;99606.13;;;7.87;76.95
12666;BME280;58531;59.050;17.416;2023-04-26T08:08:20;99616.13;;;7.74;76.81
12666;BME280;58531;59.050;17.416;2023-04-26T08:10:47;99610.13;;;8.01;77.15
12666;BME280;58531;59.050;17.416;2023-04-26T08:13:14;99621.41;;;8.40;76.30
12666;BME280;58531;59.050;17.416;2023-04-26T08:15:42;99616.97;;;8.28;74.49
12666;BME280;58531;59.050;17.416;2023-04-26T08:18:09;99616.38;;;8.33;75.40
12666;BME280;58531;59.050;17.416;2023-04-26T08:20:37;99621.09;;;8.29;76.79
12666;BME280;58531;59.050;17.416;2023-04-26T08:23:04;99616.66;;;8.18;77.55
12666;BME280;58531;59.050;17.416;2023-04-26T08:25:31;99618.22;;;7.97;77.06
12666;BME280;58531;59.050;17.416;2023-04-26T08:27:59;99619.63;;;7.62;80.32
12666;BME280;58531;59.050;17.416;2023-04-26T08:30:26;99624.25;;;7.40;80.05
12666;BME280;58531;59.050;17.416;2023-04-26T08:32:55;99620.16;;;7.09;82.87
12666;BME280;58531;59.050;17.416;2023-04-26T08:35:22;99622.19;;;7.05;81.04
12666;BME280;58531;59.050;17.416;2023-04-26T08:37:49;99624.31;;;7.19;83.14
12666;BME280;58531;59.050;17.416;2023-04-26T08:40:21;99632.00;;;7.56;80.15
12666;BME280;58531;59.050;17.416;2023-04-26T08:42:49;99624.00;;;7.96;79.05
12666;BME280;58531;59.050;17.416;2023-04-26T08:45:18;99632.50;;;8.30;77.25
12666;BME280;58531;59.050;17.416;2023-04-26T08:47:47;99629.56;;;9.23;72.02
12666;BME280;58531;59.050;17.416;2023-04-26T08:50:18;99628.84;;;10.20;69.62
12666;BME280;58531;59.050;17.416;2023-04-26T08:52:47;99625.34;;;10.80;68.16
12666;BME280;58531;59.050;17.416;2023-04-26T08:55:16;99630.53;;;11.13;65.40
12666;BME280;58531;59.050;17.416;2023-04-26T08:57:45;99627.66;;;10.87;64.18
12666;BME280;58531;59.050;17.416;2023-04-26T09:00:13;99633.56;;;10.91;66.71
12666;BME280;58531;59.050;17.416;2023-04-26T09:02:40;99636.25;;;11.06;64.27
12666;BME280;58531;59.050;17.416;2023-04-26T09:05:08;99634.22;;;11.01;60.84
12666;BME280;58531;59.050;17.416;2023-04-26T09:07:39;99625.91;;;10.70;60.01
12666;BME280;58531;59.050;17.416;2023-04-26T09:10:08;99629.81;;;10.08;61.19
12666;BME280;58531;59.050;17.416;2023-04-26T09:12:35;99626.16;;;10.43;59.91
12666;BME280;58531;59.050;17.416;2023-04-26T09:15:03;99621.72;;;10.40;60.11
12666;BME280;58531;59.050;17.416;2023-04-26T09:17:32;99626.81;;;9.82;60.55
12666;BME280;58531;59.050;17.416;2023-04-26T09:20:05;99629.53;;;9.97;67.12
12666;BME280;58531;59.050;17.416;2023-04-26T09:22:44;99631.50;;;10.43;61.93
12666;BME280;58531;59.050;17.416;2023-04-26T09:25:12;99637.97;;;10.65;62.50
12666;BME280;58531;59.050;17.416;2023-04-26T09:27:41;99637.75;;;10.40;63.30
12666;BME280;58531;59.050;17.416;2023-04-26T09:30:11;99636.59;;;9.85;59.10
12666;BME280;58531;59.050;17.416;2023-04-26T09:32:51;99633.16;;;9.52;60.95
12666;BME280;58531;59.050;17.416;2023-04-26T09:35:26;99628.88;;;9.87;63.37
12666;BME280;58531;59.050;17.416;2023-04-26T09:37:56;99627.16;;;9.75;60.37
12666;BME280;58531;59.050;17.416;2023-04-26T09:40:25;99631.31;;;9.67;59.93
12666;BME280;58531;59.050;17.416;2023-04-26T09:42:57;99631.78;;;9.66;61.68
12666;BME280;58531;59.050;17.416;2023-04-26T09:45:25;99624.09;;;9.27;61.30
12666;BME280;58531;59.050;17.416;2023-04-26T09:47:52;99620.00;;;8.99;63.09
12666;BME280;58531;59.050;17.416;2023-04-26T09:50:26;99625.63;;;9.10;61.48
12666;BME280;58531;59.050;17.416;2023-04-26T09:52:55;99617.03;;;9.15;60.09
12666;BME280;58531;59.050;17.416;2023-04-26T09:55:26;99616.09;;;9.27;60.97
12666;BME280;58531;59.050;17.416;2023-04-26T09:57:54;99619.09;;;9.11;57.79
12666;BME280;58531;59.050;17.416;2023-04-26T10:00:21;99622.06;;;9.04;58.34
12666;BME280;58531;59.050;17.416;2023-04-26T10:02:51;99619.72;;;9.06;59.95
12666;BME280;58531;59.050;17.416;2023-04-26T10:05:20;99624.31;;;9.05;58.31
12666;BME280;58531;59.050;17.416;2023-04-26T10:07:47;99619.28;;;9.07;58.26
12666;BME280;58531;59.050;17.416;2023-04-26T10:10:17;99620.63;;;8.94;61.56
12666;BME280;58531;59.050;17.416;2023-04-26T10:12:44;99624.75;;;8.95;60.84
12666;BME280;58531;59.050;17.416;2023-04-26T10:15:11;99632.19;;;8.82;59.90
12666;BME280;58531;59.050;17.416;2023-04-26T10:17:38;99629.25;;;8.80;60.42
12666;BME280;58531;59.050;17.416;2023-04-26T10:20:08;99630.13;;;8.86;61.07
12666;BME280;58531;59.050;17.416;2023-04-26T10:22:39;99630.94;;;9.10;61.13
12666;BME280;58531;59.050;17.416;2023-04-26T10:25:09;99635.66;;;9.24;57.83
12666;BME280;58531;59.050;17.416;2023-04-26T10:27:50;99628.94;;;9.37;59.28
12666;BME280;58531;59.050;17.416;2023-04-26T10:30:21;99633.97;;;9.76;60.02
12666;BME280;58531;59.050;17.416;2023-04-26T10:33:15;99636.50;;;9.94;57.00
12666;BME280;58531;59.050;17.416;2023-04-26T10:35:59;99630.13;;;10.24;59.47
12666;BME280;58531;59.050;17.416;2023-04-26T10:38:26;99631.38;;;10.38;56.43
12666;BME280;58531;59.050;17.416;2023-04-26T10:40:53;99628.78;;;10.05;51.73
12666;BME280;58531;59.050;17.416;2023-04-26T10:43:28;99648.16;;;9.82;56.26
12666;BME280;58531;59.050;17.416;2023-04-26T10:45:56;99635.09;;;9.84;57.50
12666;BME280;58531;59.050;17.416;2023-04-26T10:48:29;99638.81;;;10.10;58.42
12666;BME280;58531;59.050;17.416;2023-04-26T10:51:09;99640.47;;;10.31;55.05
12666;BME280;58531;59.050;17.416;2023-04-26T10:53:58;99642.06;;;10.14;52.76
12666;BME280;58531;59.050;17.416;2023-04-26T10:56:51;99645.53;;;9.73;57.04
12666;BME280;58531;59.050;17.416;2023-04-26T10:59:22;99636.09;;;9.63;55.68
12666;BME280;58531;59.050;17.416;2023-04-26T11:01:51;99636.41;;;9.56;53.79
12666;BME280;58531;59.050;17.416;2023-04-26T11:04:18;99645.91;;;9.48;57.01
12666;BME280;58531;59.050;17.416;2023-04-26T11:06:49;99640.19;;;9.73;56.80
12666;BME280;58531;59.050;17.416;2023-04-26T11:09:35;99650.81;;;9.82;53.77
12666;BME280;58531;59.050;17.416;2023-04-26T11:12:04;99647.97;;;9.53;53.35
12666;BME280;58531;59.050;17.416;2023-04-26T11:14:33;99646.66;;;9.49;54.01
12666;BME280;58531;59.050;17.416;2023-04-26T11:17:02;99651.09;;;9.52;55.92
12666;BME280;58531;59.050;17.416;2023-04-26T11:19:30;99651.94;;;9.67;54.23
12666;BME280;58531;59.050;17.416;2023-04-26T11:21:58;99654.06;;;9.45;54.98
12666;BME280;58531;59.050;17.416;2023-04-26T11:24:25;99658.47;;;9.57;56.08
12666;BME280;58531;59.050;17.416;2023-04-26T11:26:52;99657.22;;;9.35;52.54
12666;BME280;58531;59.050;17.416;2023-04-26T11:29:20;99657.00;;;8.97;51.47
12666;BME280;58531;59.050;17.416;2023-04-26T11:31:52;99659.25;;;8.89;53.37
12666;BME280;58531;59.050;17.416;2023-04-26T11:34:20;99663.53;;;8.78;55.83
12666;BME280;58531;59.050;17.416;2023-04-26T11:36:50;99666.47;;;8.98;56.40
12666;BME280;58531;59.050;17.416;2023-04-26T11:39:21;99663.63;;;9.19;53.27
12666;BME280;58531;59.050;17.416;2023-04-26T11:41:48;99669.09;;;9.25;51.06
12666;BME280;58531;59.050;17.416;2023-04-26T11:44:17;99665.75;;;8.88;51.47
12666;BME280;58531;59.050;17.416;2023-04-26T11:46:46;99674.34;;;8.83;53.40
12666;BME280;58531;59.050;17.416;2023-04-26T11:49:16;99667.41;;;9.45;54.37
12666;BME280;58531;59.050;17.416;2023-04-26T11:51:46;99671.47;;;9.96;52.39
12666;BME280;58531;59.050;17.416;2023-04-26T11:54:26;99674.75;;;9.68;51.00
12666;BME280;58531;59.050;17.416;2023-04-26T11:56:54;99664.44;;;9.43;51.10
12666;BME280;58531;59.050;17.416;2023-04-26T11:59:24;99671.38;;;9.49;51.34
12666;BME280;58531;59.050;17.416;2023-04-26T12:01:51;99671.97;;;9.44;49.19
12666;BME280;58531;59.050;17.416;2023-04-26T12:04:25;99674.22;;;9.46;51.11
12666;BME280;58531;59.050;17.416;2023-04-26T12:06:53;99675.47;;;9.68;50.80
12666;BME280;58531;59.050;17.416;2023-04-26T12:09:21;99680.28;;;10.58;52.45
12666;BME280;58531;59.050;17.416;2023-04-26T12:11:53;99682.41;;;10.92;48.48
12666;BME280;58531;59.050;17.416;2023-04-26T12:14:23;99680.06;;;10.47;47.45
12666;BME280;58531;59.050;17.416;2023-04-26T12:16:58;99678.13;;;10.10;47.45
12666;BME280;58531;59.050;17.416;2023-04-26T12:19:26;99684.75;;;10.14;47.85
12666;BME280;58531;59.050;17.416;2023-04-26T12:21:53;99682.19;;;10.81;47.10
12666;BME280;58531;59.050;17.416;2023-04-26T12:24:21;99691.06;;;10.87;47.60
12666;BME280;58531;59.050;17.416;2023-04-26T12:26:48;99693.44;;;10.85;47.57
12666;BME280;58531;59.050;17.416;2023-04-26T12:29:15;99694.78;;;10.66;47.18
12666;BME280;58531;59.050;17.416;2023-04-26T12:31:42;99691.31;;;10.51;48.49
12666;BME280;58531;59.050;17.416;2023-04-26T12:34:09;99692.72;;;10.99;49.14
12666;BME280;58531;59.050;17.416;2023-04-26T12:36:38;99687.00;;;11.06;44.57
12666;BME280;58531;59.050;17.416;2023-04-26T12:39:05;99690.81;;;10.61;46.71
12666;BME280;58531;59.050;17.416;2023-04-26T12:41:32;99685.84;;;10.31;47.90
12666;BME280;58531;59.050;17.416;2023-04-26T12:43:59;99695.31;;;10.09;48.55
12666;BME280;58531;59.050;17.416;2023-04-26T12:46:26;99691.59;;;10.06;46.72
12666;BME280;58531;59.050;17.416;2023-04-26T12:48:53;99702.19;;;10.24;50.41
12666;BME280;58531;59.050;17.416;2023-04-26T12:51:20;99691.41;;;10.80;48.31
12666;BME280;58531;59.050;17.416;2023-04-26T12:53:48;99691.78;;;10.87;48.21
12666;BME280;58531;59.050;17.416;2023-04-26T12:56:16;99692.22;;;10.48;44.96
12666;BME280;58531;59.050;17.416;2023-04-26T12:58:43;99689.28;;;10.46;46.68